createdAt,value
2022-12-15T00:00:06.044Z,-4.31
2022-12-15T00:01:06.109Z,-4.27
2022-12-15T00:02:06.118Z,-4.25
2022-12-15T00:03:06.120Z,-4.27
2022-12-15T00:04:06.066Z,-4.22
2022-12-15T00:05:05.983Z,-4.13
2022-12-15T00:06:05.983Z,-4.17
2022-12-15T00:07:05.999Z,-4.14
2022-12-15T00:08:05.939Z,-4.14
2022-12-15T00:09:09.842Z,-4.20
2022-12-15T00:10:05.913Z,-4.27
2022-12-15T00:11:05.912Z,-4.30
2022-12-15T00:12:05.887Z,-4.28
2022-12-15T00:13:05.872Z,-4.30
2022-12-15T00:14:05.865Z,-4.28
2022-12-15T00:15:05.845Z,-4.22
2022-12-15T00:16:05.908Z,-4.20
2022-12-15T00:17:05.824Z,-4.14
2022-12-15T00:18:05.837Z,-4.10
2022-12-15T00:19:05.801Z,-4.17
2022-12-15T00:20:05.785Z,-4.20
2022-12-15T00:21:05.794Z,-4.24
2022-12-15T00:22:05.764Z,-4.21
2022-12-15T00:23:05.763Z,-4.16
2022-12-15T00:24:05.734Z,-4.13
2022-12-15T00:25:05.724Z,-4.07
2022-12-15T00:26:05.733Z,-3.99
2022-12-15T00:27:05.701Z,-3.93
2022-12-15T00:28:05.690Z,-3.92
2022-12-15T00:29:05.672Z,-3.85
2022-12-15T00:30:05.669Z,-3.86
2022-12-15T00:31:05.720Z,-3.88
2022-12-15T00:32:05.641Z,-3.85
2022-12-15T00:33:05.622Z,-4.06
2022-12-15T00:34:05.639Z,-4.10
2022-12-15T00:35:05.602Z,-4.13
2022-12-15T00:36:05.604Z,-4.13
2022-12-15T00:37:05.585Z,-4.13
2022-12-15T00:38:05.573Z,-4.14
2022-12-15T00:39:05.554Z,-4.13
2022-12-15T00:40:05.539Z,-4.10
2022-12-15T00:41:05.542Z,-4.13
2022-12-15T00:42:05.511Z,-4.20
2022-12-15T00:43:05.501Z,-4.13
2022-12-15T00:44:05.501Z,-4.12
2022-12-15T00:45:05.478Z,-4.16
2022-12-15T00:46:05.527Z,-4.16
2022-12-15T00:47:05.574Z,-4.16
2022-12-15T00:48:05.451Z,-4.17
2022-12-15T00:49:05.434Z,-4.21
2022-12-15T00:50:05.436Z,-4.20
2022-12-15T00:51:05.421Z,-4.16
2022-12-15T00:52:05.393Z,-4.16
2022-12-15T00:53:05.385Z,-4.09
2022-12-15T00:54:05.372Z,-3.99
2022-12-15T00:55:05.361Z,-4.09
2022-12-15T00:56:05.339Z,-4.16
2022-12-15T00:57:05.342Z,-4.21
2022-12-15T00:58:05.315Z,-4.21
2022-12-15T00:59:05.302Z,-4.17
2022-12-15T01:00:05.329Z,-4.17
2022-12-15T01:01:05.276Z,-4.20
2022-12-15T01:02:05.349Z,-4.13
2022-12-15T01:03:05.525Z,-4.06
2022-12-15T01:04:05.381Z,-3.99
2022-12-15T01:05:05.228Z,-3.99
2022-12-15T01:06:05.243Z,-4.04
2022-12-15T01:07:05.219Z,-4.07
2022-12-15T01:08:05.194Z,-4.12
2022-12-15T01:09:05.176Z,-4.10
2022-12-15T01:10:05.186Z,-4.04
2022-12-15T01:11:05.152Z,-4.02
2022-12-15T01:12:05.154Z,-3.98
2022-12-15T01:13:05.128Z,-3.98
2022-12-15T01:14:05.114Z,-3.89
2022-12-15T01:15:05.103Z,-3.88
2022-12-15T01:16:05.219Z,-3.88
2022-12-15T01:17:05.090Z,-3.80
2022-12-15T01:18:05.064Z,-3.78
2022-12-15T01:19:05.055Z,-3.80
2022-12-15T01:20:05.048Z,-3.85
2022-12-15T01:21:05.029Z,-3.80
2022-12-15T01:22:05.057Z,-3.89
2022-12-15T01:23:05.007Z,-3.92
2022-12-15T01:24:05.000Z,-3.95
2022-12-15T01:25:04.977Z,-4.02
2022-12-15T01:26:04.969Z,-4.12
2022-12-15T01:27:04.974Z,-4.14
2022-12-15T01:28:04.944Z,-4.12
2022-12-15T01:29:04.929Z,-4.07
2022-12-15T01:30:04.945Z,-4.04
2022-12-15T01:31:04.942Z,-4.04
2022-12-15T01:32:04.914Z,-4.02
2022-12-15T01:33:04.882Z,-4.04
2022-12-15T01:34:04.867Z,-4.06
2022-12-15T01:35:04.856Z,-4.03
2022-12-15T01:36:04.844Z,-4.02
2022-12-15T01:37:04.859Z,-4.03
2022-12-15T01:38:04.841Z,-3.99
2022-12-15T01:39:04.807Z,-4.04
2022-12-15T01:40:04.891Z,-4.04
2022-12-15T01:41:04.795Z,-4.04
2022-12-15T01:42:04.787Z,-4.07
2022-12-15T01:43:04.758Z,-4.10
2022-12-15T01:44:04.741Z,-4.10
2022-12-15T01:45:04.733Z,-4.09
2022-12-15T01:46:04.718Z,-4.12
2022-12-15T01:47:04.758Z,-4.13
2022-12-15T01:48:04.703Z,-4.20
2022-12-15T01:49:04.683Z,-4.21
2022-12-15T01:50:04.667Z,-4.24
2022-12-15T01:51:04.658Z,-4.24
2022-12-15T01:52:04.660Z,-4.30
2022-12-15T01:53:04.628Z,-4.28
2022-12-15T01:54:04.643Z,-4.31
2022-12-15T01:55:04.609Z,-4.31
2022-12-15T01:56:04.608Z,-4.39
2022-12-15T01:57:04.599Z,-4.49
2022-12-15T01:58:04.578Z,-4.57
2022-12-15T01:59:04.561Z,-4.59
2022-12-15T02:00:04.551Z,-4.63
2022-12-15T02:01:04.620Z,-4.66
2022-12-15T02:02:04.721Z,-4.69
2022-12-15T02:03:04.641Z,-4.71
2022-12-15T02:04:04.491Z,-4.69
2022-12-15T02:05:04.476Z,-4.71
2022-12-15T02:06:04.463Z,-4.66
2022-12-15T02:07:04.486Z,-4.64
2022-12-15T02:08:04.443Z,-4.63
2022-12-15T02:09:04.430Z,-4.61
2022-12-15T02:10:04.441Z,-4.61
2022-12-15T02:11:04.410Z,-4.61
2022-12-15T02:12:04.391Z,-4.61
2022-12-15T02:13:04.404Z,-4.53
2022-12-15T02:14:04.368Z,-4.53
2022-12-15T02:15:04.352Z,-4.52
2022-12-15T02:16:04.365Z,-4.50
2022-12-15T02:17:04.327Z,-4.59
2022-12-15T02:18:04.336Z,-4.57
2022-12-15T02:19:04.304Z,-4.57
2022-12-15T02:20:04.295Z,-4.55
2022-12-15T02:21:04.280Z,-4.52
2022-12-15T02:24:43.252Z,-4.45
2022-12-15T02:25:27.199Z,-4.43
2022-12-15T02:26:26.155Z,-4.42
2022-12-15T02:27:26.156Z,-4.43
2022-12-15T02:28:26.129Z,-4.52
2022-12-15T02:29:26.116Z,-4.49
2022-12-15T02:30:26.104Z,-4.48
2022-12-15T02:31:26.156Z,-4.46
2022-12-15T02:32:26.107Z,-4.41
2022-12-15T02:33:26.069Z,-4.38
2022-12-15T02:34:26.150Z,-4.42
2022-12-15T02:35:26.044Z,-4.41
2022-12-15T02:36:26.029Z,-4.45
2022-12-15T02:37:26.022Z,-4.45
2022-12-15T02:38:26.020Z,-4.48
2022-12-15T02:39:25.996Z,-4.48
2022-12-15T02:40:25.983Z,-4.53
2022-12-15T02:41:26.000Z,-4.52
2022-12-15T02:42:25.958Z,-4.48
2022-12-15T02:43:25.963Z,-4.49
2022-12-15T02:44:25.936Z,-4.50
2022-12-15T02:45:25.982Z,-4.50
2022-12-15T02:46:25.912Z,-4.52
2022-12-15T02:47:25.898Z,-4.57
2022-12-15T02:48:25.899Z,-4.59
2022-12-15T02:49:25.873Z,-4.57
2022-12-15T02:50:25.863Z,-4.55
2022-12-15T02:51:25.850Z,-4.50
2022-12-15T02:52:25.835Z,-4.52
2022-12-15T02:53:25.841Z,-4.52
2022-12-15T02:54:25.810Z,-4.48
2022-12-15T02:55:25.800Z,-4.43
2022-12-15T02:56:25.789Z,-4.46
2022-12-15T02:57:25.799Z,-4.41
2022-12-15T02:58:25.791Z,-4.41
2022-12-15T02:59:25.750Z,-4.46
2022-12-15T03:00:25.744Z,-4.49
2022-12-15T03:01:25.813Z,-4.48
2022-12-15T03:02:25.920Z,-4.49
2022-12-15T03:03:25.817Z,-4.55
2022-12-15T03:04:25.697Z,-4.49
2022-12-15T03:05:25.684Z,-4.53
2022-12-15T03:06:25.678Z,-4.55
2022-12-15T03:07:25.660Z,-4.55
2022-12-15T03:08:25.659Z,-4.55
2022-12-15T03:09:25.645Z,-4.53
2022-12-15T03:10:25.622Z,-4.53
2022-12-15T03:11:25.609Z,-4.53
2022-12-15T03:12:25.592Z,-4.55
2022-12-15T03:13:25.626Z,-4.55
2022-12-15T03:14:25.572Z,-4.59
2022-12-15T03:15:28.047Z,-4.60
2022-12-15T03:16:26.610Z,-4.60
2022-12-15T03:17:25.531Z,-4.66
2022-12-15T03:18:25.538Z,-4.69
2022-12-15T03:19:25.509Z,-4.67
2022-12-15T03:20:25.497Z,-4.69
2022-12-15T03:21:25.483Z,-4.69
2022-12-15T03:22:25.476Z,-4.70
2022-12-15T03:23:25.472Z,-4.73
2022-12-15T03:24:25.457Z,-4.77
2022-12-15T03:25:25.435Z,-4.79
2022-12-15T03:26:25.423Z,-4.82
2022-12-15T03:27:25.414Z,-4.79
2022-12-15T03:28:25.417Z,-4.82
2022-12-15T03:29:25.418Z,-4.82
2022-12-15T03:30:25.375Z,-4.77
2022-12-15T03:31:25.413Z,-4.77
2022-12-15T03:32:25.354Z,-4.79
2022-12-15T03:33:25.353Z,-4.79
2022-12-15T03:34:25.327Z,-4.71
2022-12-15T03:35:25.308Z,-4.77
2022-12-15T03:36:25.299Z,-4.78
2022-12-15T03:37:25.284Z,-4.81
2022-12-15T03:38:25.294Z,-4.84
2022-12-15T03:39:25.265Z,-4.77
2022-12-15T03:40:25.254Z,-4.82
2022-12-15T03:41:25.237Z,-4.85
2022-12-15T03:42:25.234Z,-4.79
2022-12-15T03:43:25.233Z,-4.81
2022-12-15T03:44:25.202Z,-4.79
2022-12-15T03:45:25.223Z,-4.75
2022-12-15T03:46:25.245Z,-4.77
2022-12-15T03:47:25.171Z,-4.78
2022-12-15T03:48:25.181Z,-4.84
2022-12-15T03:49:25.145Z,-4.81
2022-12-15T03:50:25.130Z,-4.84
2022-12-15T03:51:25.116Z,-4.92
2022-12-15T03:52:25.110Z,-4.91
2022-12-15T03:53:25.110Z,-4.95
2022-12-15T03:54:25.084Z,-4.91
2022-12-15T03:55:25.068Z,-4.88
2022-12-15T03:56:25.060Z,-4.84
2022-12-15T03:57:25.042Z,-4.82
2022-12-15T03:58:25.049Z,-4.85
2022-12-15T03:59:25.030Z,-4.77
2022-12-15T04:00:25.008Z,-4.82
2022-12-15T04:01:25.187Z,-4.82
2022-12-15T04:02:25.226Z,-4.82
2022-12-15T04:03:25.140Z,-4.81
2022-12-15T04:04:24.958Z,-4.77
2022-12-15T04:05:24.949Z,-4.77
2022-12-15T04:06:24.938Z,-4.78
2022-12-15T04:07:24.927Z,-4.71
2022-12-15T04:08:24.914Z,-4.70
2022-12-15T04:09:24.917Z,-4.71
2022-12-15T04:10:30.096Z,-4.73
2022-12-15T04:11:24.875Z,-4.75
2022-12-15T04:12:24.872Z,-4.78
2022-12-15T04:13:24.852Z,-4.78
2022-12-15T04:14:24.854Z,-4.78
2022-12-15T04:15:24.822Z,-4.78
2022-12-15T04:16:24.913Z,-4.75
2022-12-15T04:17:24.919Z,-4.70
2022-12-15T04:18:24.794Z,-4.70
2022-12-15T04:19:24.798Z,-4.70
2022-12-15T04:20:24.767Z,-4.71
2022-12-15T04:21:24.780Z,-4.71
2022-12-15T04:22:24.741Z,-4.67
2022-12-15T04:23:24.726Z,-4.69
2022-12-15T04:24:24.738Z,-4.69
2022-12-15T04:25:24.704Z,-4.67
2022-12-15T04:26:24.690Z,-4.75
2022-12-15T04:27:24.690Z,-4.82
2022-12-15T04:28:24.683Z,-4.82
2022-12-15T04:29:24.673Z,-4.81
2022-12-15T04:30:24.646Z,-4.73
2022-12-15T04:31:24.668Z,-4.71
2022-12-15T04:32:24.626Z,-4.77
2022-12-15T04:33:30.476Z,-4.81
2022-12-15T04:34:25.619Z,-4.81
2022-12-15T04:35:24.585Z,-4.82
2022-12-15T04:36:24.570Z,-4.82
2022-12-15T04:37:24.557Z,-4.82
2022-12-15T04:38:24.549Z,-4.81
2022-12-15T04:39:24.555Z,-4.81
2022-12-15T04:40:24.524Z,-4.81
2022-12-15T04:41:24.511Z,-4.79
2022-12-15T04:42:24.495Z,-4.78
2022-12-15T04:43:24.486Z,-4.75
2022-12-15T04:44:24.492Z,-4.70
2022-12-15T04:45:24.460Z,-4.70
2022-12-15T04:46:24.474Z,-4.67
2022-12-15T04:47:24.436Z,-4.67
2022-12-15T04:48:24.426Z,-4.69
2022-12-15T04:49:24.450Z,-4.69
2022-12-15T04:50:24.410Z,-4.60
2022-12-15T04:51:24.384Z,-4.60
2022-12-15T04:52:24.374Z,-4.53
2022-12-15T04:53:24.369Z,-4.55
2022-12-15T04:54:24.389Z,-4.52
2022-12-15T04:55:24.338Z,-4.60
2022-12-15T04:56:24.325Z,-4.67
2022-12-15T04:57:24.311Z,-4.66
2022-12-15T04:58:24.305Z,-4.70
2022-12-15T04:59:24.293Z,-4.67
2022-12-15T05:00:24.296Z,-4.63
2022-12-15T05:01:24.390Z,-4.59
2022-12-15T05:02:24.392Z,-4.53
2022-12-15T05:03:24.243Z,-4.53
2022-12-15T05:04:24.326Z,-4.49
2022-12-15T05:05:24.256Z,-4.49
2022-12-15T05:06:24.233Z,-4.48
2022-12-15T05:07:24.193Z,-4.46
2022-12-15T05:08:24.184Z,-4.49
2022-12-15T05:09:24.168Z,-4.45
2022-12-15T05:10:24.174Z,-4.35
2022-12-15T05:11:24.145Z,-4.35
2022-12-15T05:12:24.135Z,-4.35
2022-12-15T05:13:24.119Z,-4.39
2022-12-15T05:14:24.107Z,-4.43
2022-12-15T05:15:24.166Z,-4.50
2022-12-15T05:16:24.207Z,-4.53
2022-12-15T05:17:24.128Z,-4.55
2022-12-15T05:18:24.064Z,-4.53
2022-12-15T05:19:24.047Z,-4.52
2022-12-15T05:20:24.052Z,-4.53
2022-12-15T05:21:24.048Z,-4.53
2022-12-15T05:22:24.015Z,-4.50
2022-12-15T05:23:24.010Z,-4.49
2022-12-15T05:24:23.986Z,-4.48
2022-12-15T05:25:23.994Z,-4.50
2022-12-15T05:26:23.967Z,-4.49
2022-12-15T05:27:23.953Z,-4.49
2022-12-15T05:28:23.938Z,-4.52
2022-12-15T05:29:23.926Z,-4.52
2022-12-15T05:30:23.930Z,-4.52
2022-12-15T05:31:24.051Z,-4.53
2022-12-15T05:32:23.906Z,-4.52
2022-12-15T05:33:23.876Z,-4.53
2022-12-15T05:34:23.866Z,-4.52
2022-12-15T05:35:23.864Z,-4.46
2022-12-15T05:36:23.844Z,-4.49
2022-12-15T05:37:24.464Z,-4.57
2022-12-15T05:38:23.817Z,-4.63
2022-12-15T05:39:23.803Z,-4.61
2022-12-15T05:40:23.810Z,-4.66
2022-12-15T05:41:23.779Z,-4.70
2022-12-15T05:42:23.769Z,-4.82
2022-12-15T05:43:26.588Z,-4.85
2022-12-15T05:44:23.753Z,-4.79
2022-12-15T05:45:23.751Z,-4.73
2022-12-15T05:46:23.888Z,-4.64
2022-12-15T05:47:23.706Z,-4.64
2022-12-15T05:48:23.693Z,-4.64
2022-12-15T05:49:23.680Z,-4.61
2022-12-15T05:50:23.689Z,-4.63
2022-12-15T05:51:23.659Z,-4.60
2022-12-15T05:52:23.648Z,-4.57
2022-12-15T05:53:23.653Z,-4.48
2022-12-15T05:54:23.622Z,-4.46
2022-12-15T05:55:23.623Z,-4.42
2022-12-15T05:56:23.599Z,-4.41
2022-12-15T05:57:23.583Z,-4.41
2022-12-15T05:58:23.575Z,-4.39
2022-12-15T05:59:23.558Z,-4.32
2022-12-15T06:00:23.576Z,-4.39
2022-12-15T06:01:23.595Z,-4.38
2022-12-15T06:02:23.659Z,-4.34
2022-12-15T06:03:23.516Z,-4.31
2022-12-15T06:04:23.525Z,-4.30
2022-12-15T06:05:23.500Z,-4.30
2022-12-15T06:06:23.508Z,-4.27
2022-12-15T06:07:23.463Z,-4.27
2022-12-15T06:08:23.455Z,-4.28
2022-12-15T06:09:23.461Z,-4.24
2022-12-15T06:10:23.432Z,-4.27
2022-12-15T06:11:23.451Z,-4.22
2022-12-15T06:12:23.409Z,-4.16
2022-12-15T06:13:23.387Z,-4.16
2022-12-15T06:14:23.388Z,-4.14
2022-12-15T06:15:23.366Z,-4.12
2022-12-15T06:16:23.495Z,-4.12
2022-12-15T06:17:23.338Z,-4.13
2022-12-15T06:18:23.360Z,-4.09
2022-12-15T06:19:23.320Z,-4.10
2022-12-15T06:20:23.312Z,-4.07
2022-12-15T06:21:23.308Z,-4.02
2022-12-15T06:22:23.292Z,-4.04
2022-12-15T06:23:23.263Z,-4.16
2022-12-15T06:24:23.256Z,-4.17
2022-12-15T06:25:23.286Z,-4.25
2022-12-15T06:26:23.253Z,-4.27
2022-12-15T06:27:23.215Z,-4.28
2022-12-15T06:28:23.215Z,-4.25
2022-12-15T06:29:23.194Z,-4.21
2022-12-15T06:30:23.183Z,-4.21
2022-12-15T06:31:23.233Z,-4.20
2022-12-15T06:32:23.161Z,-4.27
2022-12-15T06:33:23.152Z,-4.28
2022-12-15T06:34:23.134Z,-4.32
2022-12-15T06:35:23.119Z,-4.39
2022-12-15T06:36:23.126Z,-4.42
2022-12-15T06:37:23.098Z,-4.45
2022-12-15T06:38:23.087Z,-4.49
2022-12-15T06:39:23.070Z,-4.48
2022-12-15T06:40:23.058Z,-4.45
2022-12-15T06:41:23.091Z,-4.42
2022-12-15T06:42:23.042Z,-4.38
2022-12-15T06:43:23.023Z,-4.38
2022-12-15T06:44:23.010Z,-4.39
2022-12-15T06:45:23.004Z,-4.31
2022-12-15T06:46:23.047Z,-4.32
2022-12-15T06:47:22.976Z,-4.32
2022-12-15T06:48:22.970Z,-4.35
2022-12-15T06:49:22.948Z,-4.35
2022-12-15T06:50:22.940Z,-4.38
2022-12-15T06:51:22.949Z,-4.38
2022-12-15T06:52:22.913Z,-4.34
2022-12-15T06:53:22.898Z,-4.35
2022-12-15T06:54:22.887Z,-4.31
2022-12-15T06:55:22.885Z,-4.27
2022-12-15T06:56:27.234Z,-4.28
2022-12-15T06:57:22.972Z,-4.21
2022-12-15T06:58:22.850Z,-4.17
2022-12-15T06:59:22.828Z,-4.13
2022-12-15T07:00:22.815Z,-4.16
2022-12-15T07:01:22.890Z,-4.12
2022-12-15T07:02:28.635Z,-4.10
2022-12-15T07:03:23.116Z,-4.09
2022-12-15T07:04:22.965Z,-4.12
2022-12-15T07:05:22.754Z,-4.07
2022-12-15T07:06:22.765Z,-4.09
2022-12-15T07:07:22.735Z,-4.04
2022-12-15T07:08:28.701Z,-4.03
2022-12-15T07:09:22.711Z,-4.07
2022-12-15T07:10:22.689Z,-3.99
2022-12-15T07:11:22.699Z,-4.03
2022-12-15T07:12:22.673Z,-4.03
2022-12-15T07:13:22.683Z,-4.07
2022-12-15T07:14:22.654Z,-4.12
2022-12-15T07:15:22.632Z,-4.07
2022-12-15T07:16:22.853Z,-4.09
2022-12-15T07:17:22.610Z,-4.07
2022-12-15T07:18:22.605Z,-4.10
2022-12-15T07:19:22.586Z,-4.09
2022-12-15T07:20:28.474Z,-4.12
2022-12-15T07:21:22.576Z,-4.09
2022-12-15T07:22:22.546Z,-4.09
2022-12-15T07:23:39.750Z,-4.07
2022-12-15T07:24:23.526Z,-4.14
2022-12-15T07:25:22.515Z,-4.16
2022-12-15T07:26:22.518Z,-4.14
2022-12-15T07:27:22.487Z,-4.17
2022-12-15T07:28:25.792Z,-4.17
2022-12-15T07:29:23.692Z,-4.14
2022-12-15T07:30:22.455Z,-4.12
2022-12-15T07:31:22.771Z,-4.13
2022-12-15T07:32:22.423Z,-4.04
2022-12-15T07:33:22.420Z,-4.03
2022-12-15T07:34:22.408Z,-4.02
2022-12-15T07:35:22.392Z,-3.98
2022-12-15T07:36:22.405Z,-3.96
2022-12-15T07:37:22.365Z,-3.99
2022-12-15T07:38:22.352Z,-3.95
2022-12-15T07:39:22.346Z,-3.93
2022-12-15T07:40:22.326Z,-3.92
2022-12-15T07:41:22.354Z,-3.89
2022-12-15T07:42:22.333Z,-3.85
2022-12-15T07:43:22.289Z,-3.80
2022-12-15T07:44:22.275Z,-3.80
2022-12-15T07:45:22.287Z,-3.80
2022-12-15T07:46:22.295Z,-3.82
2022-12-15T07:47:22.260Z,-3.78
2022-12-15T07:48:22.232Z,-3.75
2022-12-15T07:49:22.222Z,-3.83
2022-12-15T07:50:22.204Z,-3.82
2022-12-15T07:51:22.195Z,-3.82
2022-12-15T07:52:22.197Z,-3.78
2022-12-15T07:53:22.170Z,-3.77
2022-12-15T07:54:22.154Z,-3.75
2022-12-15T07:55:43.304Z,-3.74
2022-12-15T07:56:22.132Z,-3.69
2022-12-15T07:57:22.149Z,-3.69
2022-12-15T07:58:22.109Z,-3.63
2022-12-15T07:59:22.095Z,-3.59
2022-12-15T08:00:22.089Z,-3.66
2022-12-15T08:01:22.349Z,-3.59
2022-12-15T08:02:22.239Z,-3.67
2022-12-15T08:03:22.145Z,-3.72
2022-12-15T08:04:22.034Z,-3.74
2022-12-15T08:05:22.022Z,-3.64
2022-12-15T08:06:22.011Z,-3.63
2022-12-15T08:07:22.015Z,-3.55
2022-12-15T08:08:21.992Z,-3.70
2022-12-15T08:09:21.977Z,-3.70
2022-12-15T08:10:21.976Z,-3.63
2022-12-15T08:11:22.025Z,-3.85
2022-12-15T08:12:21.950Z,-3.77
2022-12-15T08:13:52.867Z,-3.75
2022-12-15T08:14:22.401Z,-3.78
2022-12-15T08:15:21.903Z,-3.74
2022-12-15T08:16:21.988Z,-3.74
2022-12-15T08:17:21.923Z,-3.75
2022-12-15T08:18:21.866Z,-3.83
2022-12-15T08:19:21.886Z,-3.77
2022-12-15T08:20:21.835Z,-3.69
2022-12-15T08:21:21.829Z,-3.63
2022-12-15T08:22:21.828Z,-3.52
2022-12-15T08:23:21.810Z,-3.41
2022-12-15T08:24:21.788Z,-3.30
2022-12-15T08:25:21.777Z,-3.59
2022-12-15T08:26:26.803Z,-4.04
2022-12-15T08:27:21.769Z,-4.07
2022-12-15T08:28:21.742Z,-4.17
2022-12-15T08:30:21.720Z,-3.98
2022-12-15T08:31:21.775Z,-3.85
2022-12-15T08:32:21.843Z,-3.70
2022-12-15T08:33:21.706Z,-3.56
2022-12-15T08:34:21.675Z,-3.45
2022-12-15T08:35:54.556Z,-3.40
2022-12-15T08:36:21.645Z,-3.44
2022-12-15T08:37:21.647Z,-3.45
2022-12-15T08:38:21.626Z,-3.44
2022-12-15T08:39:21.611Z,-3.44
2022-12-15T08:40:21.599Z,-3.49
2022-12-15T08:41:21.596Z,-3.52
2022-12-15T08:42:21.596Z,-3.51
2022-12-15T08:43:21.572Z,-3.51
2022-12-15T08:44:21.548Z,-3.52
2022-12-15T08:45:21.536Z,-3.52
2022-12-15T08:46:21.767Z,-3.49
2022-12-15T08:47:21.515Z,-3.41
2022-12-15T08:48:21.511Z,-3.27
2022-12-15T08:49:22.511Z,-3.23
2022-12-15T08:50:21.476Z,-3.17
2022-12-15T08:51:21.466Z,-3.13
2022-12-15T08:52:21.451Z,-3.06
2022-12-15T08:53:31.217Z,-3.10
2022-12-15T08:54:22.436Z,-3.12
2022-12-15T08:55:22.616Z,-3.09
2022-12-15T08:56:21.399Z,-3.12
2022-12-15T08:57:21.397Z,-3.15
2022-12-15T08:58:21.392Z,-3.10
2022-12-15T08:59:21.379Z,-3.09
2022-12-15T09:00:21.358Z,-3.09
2022-12-15T09:01:23.612Z,-3.04
2022-12-15T09:02:21.482Z,-3.15
2022-12-15T09:03:21.341Z,-3.13
2022-12-15T09:04:21.338Z,-3.09
2022-12-15T09:05:21.341Z,-3.02
2022-12-15T09:06:21.278Z,-3.04
2022-12-15T09:07:21.268Z,-2.97
2022-12-15T09:08:21.268Z,-2.89
2022-12-15T09:09:21.245Z,-2.84
2022-12-15T09:10:21.258Z,-2.77
2022-12-15T09:11:21.219Z,-2.71
2022-12-15T09:12:21.220Z,-2.60
2022-12-15T09:13:21.218Z,-2.53
2022-12-15T09:14:28.632Z,-2.56
2022-12-15T09:15:29.830Z,-2.55
2022-12-15T09:16:22.266Z,-2.45
2022-12-15T09:17:21.247Z,-2.40
2022-12-15T09:18:21.153Z,-2.34
2022-12-15T09:19:21.134Z,-2.28
2022-12-15T09:20:21.111Z,-2.30
2022-12-15T09:21:21.112Z,-2.18
2022-12-15T09:22:21.091Z,-2.10
2022-12-15T09:23:21.089Z,-2.01
2022-12-15T09:24:32.081Z,-2.00
2022-12-15T09:25:21.052Z,-1.98
2022-12-15T09:26:21.033Z,-1.92
2022-12-15T09:27:21.053Z,-2.04
2022-12-15T09:28:21.021Z,-2.15
2022-12-15T09:29:21.004Z,-2.19
2022-12-15T09:30:20.983Z,-2.32
2022-12-15T09:31:21.019Z,-2.44
2022-12-15T09:32:20.970Z,-2.45
2022-12-15T09:33:20.966Z,-2.38
2022-12-15T09:34:20.932Z,-2.69
2022-12-15T09:35:20.915Z,-2.95
2022-12-15T09:36:20.901Z,-2.78
2022-12-15T09:37:20.914Z,-2.74
2022-12-15T09:38:20.894Z,-2.76
2022-12-15T09:39:20.884Z,-2.56
2022-12-15T09:40:20.856Z,-2.44
2022-12-15T09:41:20.840Z,-2.22
2022-12-15T09:42:20.843Z,-2.23
2022-12-15T09:43:34.425Z,-2.63
2022-12-15T09:44:20.818Z,-2.37
2022-12-15T09:45:20.788Z,-2.07
2022-12-15T09:46:20.917Z,-1.79
2022-12-15T09:47:20.767Z,-1.54
2022-12-15T09:48:20.752Z,-1.37
2022-12-15T09:49:20.762Z,-1.27
2022-12-15T09:50:20.727Z,-1.14
2022-12-15T09:51:20.720Z,-1.09
2022-12-15T09:52:20.703Z,-1.08
2022-12-15T09:53:52.828Z,-1.04
2022-12-15T09:54:21.720Z,-1.04
2022-12-15T09:55:20.720Z,-0.94
2022-12-15T09:56:20.667Z,-0.80
2022-12-15T09:57:20.645Z,-0.78
2022-12-15T09:58:20.623Z,-0.71
2022-12-15T09:59:20.629Z,-0.80
2022-12-15T10:00:20.602Z,-0.75
2022-12-15T10:01:20.637Z,-0.77
2022-12-15T10:02:20.655Z,-0.85
2022-12-15T10:03:20.810Z,-0.90
2022-12-15T10:04:20.634Z,-1.02
2022-12-15T10:05:20.539Z,-1.23
2022-12-15T10:06:22.061Z,-1.48
2022-12-15T10:07:20.534Z,-2.19
2022-12-15T10:08:20.499Z,-2.63
2022-12-15T10:09:20.623Z,-2.47
2022-12-15T10:10:20.477Z,-2.25
2022-12-15T10:11:20.459Z,-2.02
2022-12-15T10:12:20.460Z,-1.97
2022-12-15T10:13:20.442Z,-1.90
2022-12-15T10:14:20.456Z,-1.79
2022-12-15T10:15:20.425Z,-1.59
2022-12-15T10:16:20.467Z,-1.41
2022-12-15T10:17:20.391Z,-1.68
2022-12-15T10:18:20.371Z,-2.04
2022-12-15T10:19:20.379Z,-2.02
2022-12-15T10:20:20.350Z,-1.92
2022-12-15T10:21:20.334Z,-1.82
2022-12-15T10:22:20.322Z,-1.82
2022-12-15T10:23:20.368Z,-1.64
2022-12-15T10:24:44.525Z,-1.64
2022-12-15T10:25:27.523Z,-1.74
2022-12-15T10:26:21.273Z,-1.94
2022-12-15T10:27:20.263Z,-1.84
2022-12-15T10:28:20.256Z,-1.92
2022-12-15T10:29:20.258Z,-1.76
2022-12-15T10:30:20.352Z,-0.89
2022-12-15T10:31:20.260Z,-0.15
2022-12-15T10:32:20.196Z,0.50
2022-12-15T10:33:20.194Z,1.31
2022-12-15T10:34:20.227Z,2.02
2022-12-15T10:35:20.157Z,2.43
2022-12-15T10:36:20.152Z,3.10
2022-12-15T10:37:20.161Z,3.26
2022-12-15T10:38:20.117Z,3.32
2022-12-15T10:39:20.121Z,3.58
2022-12-15T10:40:20.090Z,3.66
2022-12-15T10:41:20.174Z,3.55
2022-12-15T10:42:20.070Z,3.66
2022-12-15T10:43:20.057Z,3.68
2022-12-15T10:44:20.056Z,3.62
2022-12-15T10:45:20.028Z,3.29
2022-12-15T10:46:20.148Z,3.08
2022-12-15T10:47:20.003Z,3.34
2022-12-15T10:48:19.996Z,3.47
2022-12-15T10:49:19.977Z,3.45
2022-12-15T10:50:24.463Z,3.88
2022-12-15T10:51:19.957Z,4.20
2022-12-15T10:52:19.940Z,4.58
2022-12-15T10:53:19.923Z,4.86
2022-12-15T10:54:19.955Z,5.02
2022-12-15T10:55:19.922Z,4.99
2022-12-15T10:56:19.886Z,5.30
2022-12-15T10:57:19.896Z,5.56
2022-12-15T10:58:19.864Z,5.51
2022-12-15T10:59:19.849Z,5.65
2022-12-15T11:00:19.851Z,5.54
2022-12-15T11:01:20.035Z,5.68
2022-12-15T11:02:23.863Z,5.53
2022-12-15T11:03:20.090Z,5.82
2022-12-15T11:04:19.821Z,5.79
2022-12-15T11:05:19.787Z,5.93
2022-12-15T11:06:19.756Z,5.86
2022-12-15T11:07:19.741Z,6.01
2022-12-15T11:08:19.733Z,6.09
2022-12-15T11:09:19.720Z,5.93
2022-12-15T11:10:19.738Z,5.76
2022-12-15T11:11:19.737Z,5.43
2022-12-15T11:12:19.684Z,4.99
2022-12-15T11:13:19.711Z,4.90
2022-12-15T11:14:19.655Z,4.93
2022-12-15T11:15:19.656Z,4.87
2022-12-15T11:16:19.629Z,4.84
2022-12-15T11:17:19.624Z,4.97
2022-12-15T11:18:19.603Z,4.75
2022-12-15T11:19:19.590Z,4.40
2022-12-15T11:20:19.595Z,4.06
2022-12-15T11:21:19.563Z,4.04
2022-12-15T11:22:19.552Z,4.04
2022-12-15T11:23:19.541Z,4.16
2022-12-15T11:24:19.525Z,4.05
2022-12-15T11:25:19.534Z,4.08
2022-12-15T11:26:19.498Z,4.17
2022-12-15T11:27:19.482Z,4.31
2022-12-15T11:28:19.473Z,4.22
2022-12-15T11:29:19.487Z,4.26
2022-12-15T11:30:19.602Z,4.35
2022-12-15T11:31:19.431Z,4.77
2022-12-15T11:32:19.422Z,4.82
2022-12-15T11:33:19.412Z,5.07
2022-12-15T11:34:19.396Z,4.86
2022-12-15T11:35:19.401Z,4.78
2022-12-15T11:36:19.371Z,4.60
2022-12-15T11:37:19.358Z,4.96
2022-12-15T11:38:19.354Z,4.97
2022-12-15T11:39:19.428Z,4.71
2022-12-15T11:40:19.446Z,4.34
2022-12-15T11:41:19.307Z,4.08
2022-12-15T11:42:19.296Z,3.60
2022-12-15T11:43:19.281Z,3.13
2022-12-15T11:44:19.269Z,2.90
2022-12-15T11:45:19.347Z,2.57
2022-12-15T11:46:19.244Z,2.57
2022-12-15T11:47:19.229Z,3.21
2022-12-15T11:48:19.218Z,3.83
2022-12-15T11:49:19.199Z,4.60
2022-12-15T11:50:19.290Z,5.36
2022-12-15T11:51:19.179Z,5.76
2022-12-15T11:52:19.168Z,6.20
2022-12-15T11:53:19.146Z,6.30
2022-12-15T11:54:19.142Z,6.52
2022-12-15T11:55:22.974Z,6.16
2022-12-15T11:56:19.112Z,5.94
2022-12-15T11:57:19.096Z,6.17
2022-12-15T11:58:19.083Z,6.57
2022-12-15T11:59:19.066Z,6.66
2022-12-15T12:00:19.142Z,6.56
2022-12-15T12:01:19.212Z,6.51
2022-12-15T12:02:19.191Z,6.05
2022-12-15T12:03:19.063Z,4.74
2022-12-15T12:04:19.006Z,3.62
2022-12-15T12:05:19.020Z,3.68
2022-12-15T12:06:18.976Z,3.80
2022-12-15T12:07:18.961Z,3.73
2022-12-15T12:08:18.960Z,4.08
2022-12-15T12:09:18.939Z,4.17
2022-12-15T12:10:18.932Z,4.80
2022-12-15T12:11:18.995Z,5.38
2022-12-15T12:12:18.899Z,5.91
2022-12-15T12:13:18.890Z,6.41
2022-12-15T12:14:18.880Z,6.92
2022-12-15T12:15:18.865Z,7.15
2022-12-15T12:16:18.861Z,7.38
2022-12-15T12:17:18.855Z,7.51
2022-12-15T12:18:18.823Z,7.76
2022-12-15T12:19:18.869Z,7.98
2022-12-15T12:20:18.908Z,7.75
2022-12-15T12:21:18.791Z,7.57
2022-12-15T12:22:18.763Z,7.72
2022-12-15T12:23:18.761Z,7.79
2022-12-15T12:24:18.741Z,8.01
2022-12-15T12:25:18.731Z,8.23
2022-12-15T12:26:18.728Z,8.23
2022-12-15T12:27:18.698Z,8.24
2022-12-15T12:28:18.695Z,8.24
2022-12-15T12:29:18.668Z,8.23
2022-12-15T12:30:18.666Z,7.91
2022-12-15T12:31:18.661Z,8.10
2022-12-15T12:32:18.649Z,8.20
2022-12-15T12:33:18.645Z,8.34
2022-12-15T12:34:18.611Z,8.41
2022-12-15T12:35:32.635Z,8.16
2022-12-15T12:36:19.599Z,7.61
2022-12-15T12:37:18.564Z,7.85
2022-12-15T12:38:18.559Z,7.76
2022-12-15T12:39:18.544Z,7.56
2022-12-15T12:40:18.531Z,7.14
2022-12-15T12:41:18.544Z,6.33
2022-12-15T12:42:18.504Z,6.48
2022-12-15T12:43:18.485Z,6.59
2022-12-15T12:44:18.481Z,6.49
2022-12-15T12:45:18.465Z,6.72
2022-12-15T12:46:18.471Z,7.06
2022-12-15T12:47:18.441Z,7.03
2022-12-15T12:48:18.427Z,6.96
2022-12-15T12:49:22.825Z,7.15
2022-12-15T12:50:19.406Z,6.85
2022-12-15T12:51:18.397Z,7.33
2022-12-15T12:52:18.371Z,7.72
2022-12-15T12:53:18.362Z,7.97
2022-12-15T12:54:18.346Z,7.95
2022-12-15T12:55:18.334Z,8.05
2022-12-15T12:56:18.334Z,7.82
2022-12-15T12:57:18.310Z,7.25
2022-12-15T12:58:18.300Z,7.67
2022-12-15T12:59:18.275Z,8.33
2022-12-15T13:00:18.424Z,8.73